KRZT

Ross County Airport

Chillicothe, Ohio, USA
METAR KRZT 200537Z AUTO 00000KT 7SM CLR 21/21 A2991 RMK AO2
Observed Flight Rules
Jun-20 @ 05:37 UTC (8 minutes ago) Visual Flight Rules
Visibility Clouds
7 miles
  • Clear skies
Temperatures Readings
Current 21°C / 70°F
Dewpoint 21°C / 70°F
Humidity 100%
Altimeter 29.91" Hg
Pressure 1013 hPa
Elevation 221
METAR KRZT 200537Z AUTO 00000KT 7SM CLR 21/21 A2991 RMK AO2
Observed Flight Rules
Jun-20 @ 05:37 UTC
(8 minutes ago)
VFR
Clouds
  • Clear skies
Temperature Dewpoint
21°C / 70°F 21°C / 70°F
Humidity Altimeter Pressure
100% 29.91" Hg 1013 hPa